METAR Data
IDs: Format: Raw Decoded Include TAF

Data at: 0753 UTC 11 Dec 2018

PAMM 102056Z AUTO 15014G22KT 9SM -RA BKN021 OVC025 06/04 A2970 RMK AO2 PK WND 15027/2003 SLP047 P0011 60018 T00610039 58032
PAMM 101856Z AUTO 14015G22KT 10SM -RA BKN023 OVC031 07/04 A2977 RMK AO2 SLP073 P0003 T00670039
PAMM 101828Z AUTO 14016G25KT 10SM -RA FEW027 BKN037 OVC047 07/04 A2978 RMK AO2 P0002
PAMM 101756Z AUTO 15012G17KT 10SM -RA BKN027 OVC032 06/04 A2979 RMK AO2 SLP079 P0002 60002 T00610039 10072 20056 56010
PAMM 101751Z AUTO 14009G18KT 10SM -RA BKN027 OVC032 06/03 A2979 RMK AO2 P0002
PAMM 101556Z AUTO 15008G18KT 10SM BKN048 OVC085 07/03 A2982 RMK AO2 SLP090 T00670028
PAMM 101356Z AUTO 17007KT 10SM FEW075 BKN120 06/03 A2985 RMK AO2 SLP099 T00610028
PAMM 101256Z AUTO VRB04KT 10SM FEW055 BKN085 06/03 A2986 RMK AO2 SLP103 T00610028
PAMM 101156Z AUTO VRB03KT 10SM FEW050 BKN060 OVC085 06/03 A2987 RMK AO2 RAE00 SLP107 P0000 60001 70066 T00560028 10072 20044 51003
PAMM 101132Z AUTO 16003KT 10SM SCT019 BKN085 06/03 A2987 RMK AO2 RAE00 P0000
PAMM 101120Z AUTO 17004KT 10SM SCT019 BKN026 BKN090 06/03 A2987 RMK AO2 RAE00 P0000
PAMM 101056Z AUTO 00000KT 10SM -RA FEW026 05/03 A2987 RMK AO2 RAB0959E13B32 SLP106 P0000 T00500033
PAMM 101053Z AUTO 00000KT 10SM -RA FEW026 05/03 A2987 RMK AO2 RAB0959E13B32 P0000
PAMM 100856Z AUTO 16004KT 10SM SCT055 05/02 A2985 RMK AO2 SLP098 60001 T00500022 51031
PAMM 100756Z AUTO 16005KT 10SM CLR 05/03 A2983 RMK AO2 RAE0659 SLP091 P0000 T00500028 401110044
PAMM 100736Z AUTO 15006KT 10SM FEW027 SCT040 05/03 A2982 RMK AO2 RAE0659 P0000
PAMM 100712Z AUTO 15004KT 10SM BKN027 OVC038 05/03 A2981 RMK AO2 RAE0659 P0000
PAMM 100656Z AUTO 24006KT 10SM -RA SCT025 SCT038 BKN045 06/03 A2981 RMK AO2 RAB37 SLP084 P0001 T00560028
PAMM 100556Z AUTO 22011KT 10SM BKN070 07/03 A2975 RMK AO2 SLP067 60011 T00720033 10083 20061 53041
PAMM 100456Z AUTO 23018KT 10SM FEW034 BKN065 OVC085 08/05 A2970 RMK AO2 PRESRR SLP049 T00780050
PAMM 100442Z AUTO 24018KT 10SM FEW016 BKN060 OVC085 08/05 A2968 RMK AO2
PAMM 100356Z AUTO 22010KT 10SM FEW009 SCT018 OVC039 08/06 A2964 RMK AO2 RAE38 SLP026 P0002 T00780061
PAMM 100354Z AUTO 23010KT 10SM FEW009 SCT018 OVC042 08/06 A2963 RMK AO2 RAE38 P0002
PAMM 100253Z AUTO 21009G16KT 7SM -RA SCT007 BKN012 OVC035 07/07 A2959 RMK AO2 P0008
PAMM 100156Z AUTO 18007KT 140V230 10SM -RA OVC014 08/07 A2958 RMK AO2 SLP006 P0001 T00830072
PAMM 100135Z AUTO 19007KT 10SM -RA BKN016 OVC037 08/07 A2957 RMK AO2 P0000
PAMM 100056Z AUTO 16008KT 10SM -RA BKN039 OVC050 08/06 A2956 RMK AO2 RAE26B55 SLP002 P0000 T00780061
PAMM 092356Z AUTO 14005KT 7SM -RA OVC036 07/04 A2954 RMK AO2 SLP995 P0016 60028 T00670044 10089 20061 53007
PAMM 092056Z AUTO 15012G19KT 9SM -RA BKN014 BKN019 OVC031 08/06 A2952 RMK AO2 RAE1958B25 SLP987 P0003 60005 T00830061 51018
PAMM 091956Z AUTO 15016G25KT 10SM -RA OVC017 09/07 A2951 RMK AO2 PK WND 16026/1922 SLP984 P0000 T00890067